TimeMDT,TemperatureF,Dew PointF,Humidity,Sea Level PressureIn,VisibilityMPH,Wind Direction,Wind SpeedMPH,Gust SpeedMPH,PrecipitationIn,Events,Conditions,WindDirDegrees,DateUTC
12:00 AM,18,16,90,,,WSW,6.9,,,,,240,2012-10-04 06:00:00
12:00 AM,17.6,16.3,95,-9999,-9999.0,WSW,6.9,-,N/A,,Unknown,240,2012-10-04 06:00:00
1:00 AM,16.5,15.4,96,-9999,-9999.0,West,5.8,-,N/A,,Unknown,270,2012-10-04 07:00:00
2:00 AM,16.3,15.1,95,-9999,-9999.0,SW,4.6,-,N/A,,Unknown,230,2012-10-04 08:00:00
3:00 AM,18.1,16.9,95,-9999,-9999.0,WSW,6.9,-,N/A,,Unknown,240,2012-10-04 09:00:00
4:00 AM,17.4,16.2,95,-9999,-9999.0,WSW,6.9,-,N/A,,Unknown,250,2012-10-04 10:00:00
5:00 AM,16.3,14.9,94,-9999,-9999.0,WSW,5.8,-,N/A,,Unknown,240,2012-10-04 11:00:00
6:00 AM,14,13,91,,,WSW,3.5,,,,,250,2012-10-04 12:00:00
6:00 AM,14.2,12.6,93,-9999,-9999.0,WSW,3.5,-,N/A,,Unknown,250,2012-10-04 12:00:00
7:00 AM,12.9,10.9,92,-9999,-9999.0,WSW,3.5,-,N/A,,Unknown,250,2012-10-04 13:00:00
8:00 AM,12.6,11.1,94,-9999,-9999.0,West,4.6,-,N/A,,Unknown,260,2012-10-04 14:00:00
9:00 AM,18.3,17.1,95,-9999,-9999.0,WSW,6.9,-,N/A,,Unknown,240,2012-10-04 15:00:00
10:00 AM,23.5,22.5,96,-9999,-9999.0,SW,3.5,-,N/A,,Unknown,230,2012-10-04 16:00:00
11:00 AM,29.8,28.8,96,-9999,-9999.0,South,2.3,-,N/A,,Unknown,180,2012-10-04 17:00:00
12:00 PM,32,31,94,,,South,3.5,,,,,170,2012-10-04 18:00:00
12:00 PM,31.8,30.9,96,-9999,-9999.0,South,3.5,-,N/A,,Unknown,170,2012-10-04 18:00:00
1:00 PM,31.6,30.2,94,-9999,-9999.0,South,5.8,-,N/A,,Unknown,190,2012-10-04 19:00:00
2:00 PM,33.8,31.8,92,-9999,-9999.0,SW,4.6,-,N/A,,Unknown,220,2012-10-04 20:00:00
3:00 PM,34.0,31.3,90,-9999,-9999.0,WSW,6.9,-,N/A,,Unknown,240,2012-10-04 21:00:00
4:00 PM,34.7,30.2,84,-9999,-9999.0,WSW,4.6,-,N/A,,Unknown,250,2012-10-04 22:00:00
5:00 PM,33.8,29.3,84,-9999,-9999.0,West,4.6,-,N/A,,Unknown,270,2012-10-04 23:00:00
6:00 PM,34,27,67,,,WSW,3.5,,,,,250,2012-10-05 00:00:00
6:00 PM,34.2,27.1,75,-9999,-9999.0,WSW,3.5,-,N/A,,Unknown,250,2012-10-05 00:00:00
7:00 PM,27.3,22.8,83,-9999,-9999.0,WSW,6.9,-,N/A,,Unknown,240,2012-10-05 01:00:00
8:00 PM,23.9,21.2,89,-9999,-9999.0,WSW,4.6,-,N/A,,Unknown,240,2012-10-05 02:00:00
9:00 PM,20.3,18.0,91,-9999,-9999.0,West,4.6,-,N/A,,Unknown,260,2012-10-05 03:00:00
10:00 PM,19.4,16.0,87,-9999,-9999.0,SW,6.9,-,N/A,,Unknown,220,2012-10-05 04:00:00
11:00 PM,19.0,15.6,87,-9999,-9999.0,WSW,5.8,-,N/A,,Unknown,250,2012-10-05 05:00:00